Wykagyl, New York
Current Conditions -  °F | °C
As of 12:56 PM on Sunday 25 Jan 2015 (Local Time) from KHPN Reporting Station
Few Clouds Few Clouds  
Wind Chill: -2°   Ceiling: Unl
Heat Index:   Visibility: 10mi
Dew Point: -10°   Wind: 15mph
Humidity: 39%   Direction: 300°WNW
Pressure: 29.75"   Gusts: 26mph
Location:  40.95°N, 73.79°W
Report Text: KHPN 251756Z 30013G23KT 10SM FEW100 03/M10 A2975 RMK AO2 SLP080 T00281100 10033 20006 53017 $
Loading
Personal Weather Stations






























Interactive Weather Map New forecast layout! Learn more

10-Day Weather Forecast

Advertisements
Track Severe Weather on mobile